Etusivu
METAR-TAF:

METAR-TAF

Lentoasemat :

Roskilde, Tanska

Leveyspiiri: 55-35N, Pituuspiiri: 012-08E, korkeus merenpinnasta: 44 m

Tämänhetkinen sää

Tämä raportti tehtiin 39 minuuttia sitten, kello 16.20 UTC
Tuuli 6 kn idästä/kaakosta, vaihdellen idän ja etelän/kaakon välillä
Lämpötila 18°C
Kosteus 68%
Ilmanpaine 1007 hPa
Näkyvyys 10 km tai enemmän

METAR: EKRK 301620Z AUTO 12006KT 080V150 9999 FEW056/// 18/12 Q1007

Aika: 18:59 (16:59 UTC)

Sääennuste

Tämä raportti tehtiin 2 tuntia ja 30 minuuttia sitten, kello 14.29 UTC
Ennuste voimassa 30. päivästä klo 15 UTC - 30. päivään klo 24 UTC
Tuuli 8 kn idästä/kaakosta
Näkyvyys 10 km tai enemmän
Hajanaisia pilviä 4000 ft:n korkeudessa
Ajoittain
30. päivästä klo 15 UTC - 30. päivään klo 22 UTC
Hajanaisia pilviä 3000 ft:n korkeudessa, Cumulonimbus.
vesikuuroja,

TAF: EKRK 301429Z 3015/3024 12008KT 9999 SCT040 TEMPO 3015/3022 SHRA SCT030CB

Säähavainnot ja -ennusteet yli 4000 lentoasemalta (METAR- ja TAF-raportit).

Käytössä olevat sääasemat on merkitty karttaan keltaisilla ja punaisilla pisteillä.

Aseta hiiri pisteen päälle nähdäksesi sääaseman nimen.

Klikkaa sitten nähdäksesi säähavainnot ja -ennusteet.

Kartan vaihtaminen: klikkaa mustalla rastilla varustettuja vihreitä pisteitä, niin voit zoomata sisään; viivalla varustettua vihreää pistettä, niin voit zoomata ulos tai vihreitä nuolia, niin pääset viereisille kartoille.


METAR-TAF: